sensor_id;sensor_type;location;lat;lon;timestamp;P1;durP1;ratioP1;P2;durP2;ratioP2
4198;SDS011;2113;50.946;14.610;2023-05-10T00:02:13;2.95;;;1.70;;
4198;SDS011;2113;50.946;14.610;2023-05-10T00:04:42;5.50;;;1.98;;
4198;SDS011;2113;50.946;14.610;2023-05-10T00:07:11;3.78;;;1.52;;
4198;SDS011;2113;50.946;14.610;2023-05-10T00:09:39;3.72;;;1.50;;
4198;SDS011;2113;50.946;14.610;2023-05-10T00:12:11;4.32;;;2.10;;
4198;SDS011;2113;50.946;14.610;2023-05-10T00:14:40;4.10;;;2.05;;
4198;SDS011;2113;50.946;14.610;2023-05-10T00:17:09;2.85;;;1.80;;
4198;SDS011;2113;50.946;14.610;2023-05-10T00:19:37;4.75;;;2.10;;
4198;SDS011;2113;50.946;14.610;2023-05-10T00:22:05;7.85;;;2.20;;
4198;SDS011;2113;50.946;14.610;2023-05-10T00:24:33;2.92;;;1.70;;
4198;SDS011;2113;50.946;14.610;2023-05-10T00:27:02;3.88;;;2.42;;
4198;SDS011;2113;50.946;14.610;2023-05-10T00:29:31;3.20;;;2.03;;
4198;SDS011;2113;50.946;14.610;2023-05-10T00:32:01;2.88;;;1.38;;
4198;SDS011;2113;50.946;14.610;2023-05-10T00:34:29;4.30;;;1.70;;
4198;SDS011;2113;50.946;14.610;2023-05-10T00:36:59;3.33;;;1.80;;
4198;SDS011;2113;50.946;14.610;2023-05-10T00:39:28;4.35;;;2.08;;
4198;SDS011;2113;50.946;14.610;2023-05-10T00:41:56;3.53;;;1.70;;
4198;SDS011;2113;50.946;14.610;2023-05-10T00:44:25;3.25;;;1.95;;
4198;SDS011;2113;50.946;14.610;2023-05-10T00:46:54;3.33;;;1.75;;
4198;SDS011;2113;50.946;14.610;2023-05-10T00:49:24;5.72;;;2.05;;
4198;SDS011;2113;50.946;14.610;2023-05-10T00:51:55;3.72;;;1.85;;
4198;SDS011;2113;50.946;14.610;2023-05-10T00:54:24;6.38;;;1.70;;
4198;SDS011;2113;50.946;14.610;2023-05-10T00:56:52;3.35;;;1.77;;
4198;SDS011;2113;50.946;14.610;2023-05-10T00:59:21;2.80;;;1.63;;
4198;SDS011;2113;50.946;14.610;2023-05-10T01:01:50;3.25;;;2.00;;
4198;SDS011;2113;50.946;14.610;2023-05-10T01:04:19;3.88;;;2.08;;
4198;SDS011;2113;50.946;14.610;2023-05-10T01:06:53;4.43;;;1.88;;
4198;SDS011;2113;50.946;14.610;2023-05-10T01:09:21;3.05;;;1.80;;
4198;SDS011;2113;50.946;14.610;2023-05-10T01:11:51;5.20;;;1.20;;
4198;SDS011;2113;50.946;14.610;2023-05-10T01:14:21;3.38;;;1.80;;
4198;SDS011;2113;50.946;14.610;2023-05-10T01:16:49;4.55;;;2.40;;
4198;SDS011;2113;50.946;14.610;2023-05-10T01:19:18;4.40;;;2.13;;
4198;SDS011;2113;50.946;14.610;2023-05-10T01:21:53;4.65;;;1.90;;
4198;SDS011;2113;50.946;14.610;2023-05-10T01:30:52;3.25;;;1.52;;
4198;SDS011;2113;50.946;14.610;2023-05-10T01:33:59;4.45;;;1.95;;
4198;SDS011;2113;50.946;14.610;2023-05-10T01:36:30;3.20;;;1.80;;
4198;SDS011;2113;50.946;14.610;2023-05-10T01:39:01;3.95;;;1.70;;
4198;SDS011;2113;50.946;14.610;2023-05-10T01:41:36;5.47;;;2.28;;
4198;SDS011;2113;50.946;14.610;2023-05-10T01:44:15;4.05;;;2.00;;
4198;SDS011;2113;50.946;14.610;2023-05-10T01:46:46;2.60;;;1.45;;
4198;SDS011;2113;50.946;14.610;2023-05-10T01:49:23;3.55;;;2.30;;
4198;SDS011;2113;50.946;14.610;2023-05-10T01:51:59;4.75;;;2.00;;
4198;SDS011;2113;50.946;14.610;2023-05-10T01:54:33;3.33;;;1.95;;
4198;SDS011;2113;50.946;14.610;2023-05-10T01:57:03;3.08;;;2.28;;
4198;SDS011;2113;50.946;14.610;2023-05-10T01:59:35;3.10;;;1.90;;
4198;SDS011;2113;50.946;14.610;2023-05-10T02:02:07;2.95;;;1.90;;
4198;SDS011;2113;50.946;14.610;2023-05-10T02:04:40;4.05;;;2.78;;
4198;SDS011;2113;50.946;14.610;2023-05-10T02:07:10;4.22;;;2.00;;
4198;SDS011;2113;50.946;14.610;2023-05-10T02:09:39;6.35;;;2.20;;
4198;SDS011;2113;50.946;14.610;2023-05-10T02:12:14;5.28;;;2.08;;
4198;SDS011;2113;50.946;14.610;2023-05-10T02:14:44;2.75;;;1.88;;
4198;SDS011;2113;50.946;14.610;2023-05-10T02:17:13;3.13;;;2.08;;
4198;SDS011;2113;50.946;14.610;2023-05-10T02:19:43;4.55;;;2.63;;
4198;SDS011;2113;50.946;14.610;2023-05-10T02:22:14;4.50;;;2.05;;
4198;SDS011;2113;50.946;14.610;2023-05-10T02:24:46;4.55;;;2.17;;
4198;SDS011;2113;50.946;14.610;2023-05-10T02:27:15;3.42;;;2.00;;
4198;SDS011;2113;50.946;14.610;2023-05-10T02:29:46;3.35;;;1.83;;
4198;SDS011;2113;50.946;14.610;2023-05-10T02:32:15;4.95;;;1.80;;
4198;SDS011;2113;50.946;14.610;2023-05-10T02:37:50;4.05;;;2.45;;
4198;SDS011;2113;50.946;14.610;2023-05-10T02:40:21;5.03;;;2.30;;
4198;SDS011;2113;50.946;14.610;2023-05-10T02:42:55;3.00;;;2.15;;
4198;SDS011;2113;50.946;14.610;2023-05-10T02:45:26;4.47;;;2.20;;
4198;SDS011;2113;50.946;14.610;2023-05-10T02:47:57;5.25;;;2.30;;
4198;SDS011;2113;50.946;14.610;2023-05-10T02:50:27;4.93;;;2.13;;
4198;SDS011;2113;50.946;14.610;2023-05-10T02:53:01;7.45;;;2.42;;
4198;SDS011;2113;50.946;14.610;2023-05-10T02:55:36;3.67;;;2.25;;
4198;SDS011;2113;50.946;14.610;2023-05-10T02:58:06;3.55;;;2.38;;
4198;SDS011;2113;50.946;14.610;2023-05-10T03:00:34;4.63;;;2.70;;
4198;SDS011;2113;50.946;14.610;2023-05-10T03:03:03;3.58;;;2.35;;
4198;SDS011;2113;50.946;14.610;2023-05-10T03:05:31;3.90;;;2.28;;
4198;SDS011;2113;50.946;14.610;2023-05-10T03:08:03;6.53;;;2.05;;
4198;SDS011;2113;50.946;14.610;2023-05-10T03:10:33;6.18;;;2.03;;
4198;SDS011;2113;50.946;14.610;2023-05-10T03:13:12;4.50;;;2.08;;
4198;SDS011;2113;50.946;14.610;2023-05-10T03:15:47;3.83;;;2.20;;
4198;SDS011;2113;50.946;14.610;2023-05-10T03:18:28;5.20;;;1.88;;
4198;SDS011;2113;50.946;14.610;2023-05-10T03:21:03;3.67;;;2.10;;
4198;SDS011;2113;50.946;14.610;2023-05-10T03:23:43;5.20;;;2.25;;
4198;SDS011;2113;50.946;14.610;2023-05-10T03:26:15;5.13;;;2.20;;
4198;SDS011;2113;50.946;14.610;2023-05-10T03:28:48;3.65;;;2.20;;
4198;SDS011;2113;50.946;14.610;2023-05-10T03:31:18;3.20;;;1.80;;
4198;SDS011;2113;50.946;14.610;2023-05-10T03:33:48;3.78;;;2.00;;
4198;SDS011;2113;50.946;14.610;2023-05-10T03:36:22;5.05;;;2.25;;
4198;SDS011;2113;50.946;14.610;2023-05-10T03:38:52;4.55;;;2.58;;
4198;SDS011;2113;50.946;14.610;2023-05-10T03:41:21;3.53;;;2.15;;
4198;SDS011;2113;50.946;14.610;2023-05-10T03:43:50;8.02;;;4.20;;
4198;SDS011;2113;50.946;14.610;2023-05-10T03:46:18;4.57;;;2.47;;
4198;SDS011;2113;50.946;14.610;2023-05-10T03:48:47;3.40;;;1.90;;
4198;SDS011;2113;50.946;14.610;2023-05-10T03:51:16;3.75;;;2.72;;
4198;SDS011;2113;50.946;14.610;2023-05-10T03:53:44;5.25;;;2.35;;
4198;SDS011;2113;50.946;14.610;2023-05-10T03:56:14;3.70;;;2.20;;
4198;SDS011;2113;50.946;14.610;2023-05-10T03:58:44;4.07;;;2.35;;
4198;SDS011;2113;50.946;14.610;2023-05-10T04:01:12;4.50;;;2.40;;
4198;SDS011;2113;50.946;14.610;2023-05-10T04:03:41;4.65;;;2.28;;
4198;SDS011;2113;50.946;14.610;2023-05-10T04:06:11;5.30;;;2.60;;
4198;SDS011;2113;50.946;14.610;2023-05-10T04:08:39;4.30;;;2.20;;
4198;SDS011;2113;50.946;14.610;2023-05-10T04:11:08;3.35;;;2.00;;
4198;SDS011;2113;50.946;14.610;2023-05-10T04:13:39;4.88;;;2.35;;
4198;SDS011;2113;50.946;14.610;2023-05-10T04:16:07;5.05;;;2.10;;
4198;SDS011;2113;50.946;14.610;2023-05-10T04:18:37;5.40;;;2.40;;
4198;SDS011;2113;50.946;14.610;2023-05-10T04:21:10;4.05;;;2.45;;
4198;SDS011;2113;50.946;14.610;2023-05-10T04:23:39;4.53;;;2.28;;
4198;SDS011;2113;50.946;14.610;2023-05-10T04:26:07;3.60;;;2.10;;
4198;SDS011;2113;50.946;14.610;2023-05-10T04:28:36;3.60;;;1.83;;
4198;SDS011;2113;50.946;14.610;2023-05-10T04:31:06;3.65;;;2.20;;
4198;SDS011;2113;50.946;14.610;2023-05-10T04:33:35;2.72;;;1.92;;
4198;SDS011;2113;50.946;14.610;2023-05-10T04:36:06;3.95;;;2.75;;
4198;SDS011;2113;50.946;14.610;2023-05-10T04:38:34;4.35;;;2.10;;
4198;SDS011;2113;50.946;14.610;2023-05-10T04:41:06;5.68;;;2.70;;
4198;SDS011;2113;50.946;14.610;2023-05-10T04:43:35;5.10;;;2.13;;
4198;SDS011;2113;50.946;14.610;2023-05-10T04:46:06;7.03;;;2.38;;
4198;SDS011;2113;50.946;14.610;2023-05-10T04:48:35;5.25;;;2.60;;
4198;SDS011;2113;50.946;14.610;2023-05-10T04:51:03;3.20;;;2.05;;
4198;SDS011;2113;50.946;14.610;2023-05-10T04:53:33;5.05;;;2.40;;
4198;SDS011;2113;50.946;14.610;2023-05-10T04:56:01;4.03;;;2.28;;
4198;SDS011;2113;50.946;14.610;2023-05-10T04:58:30;5.82;;;3.15;;
4198;SDS011;2113;50.946;14.610;2023-05-10T05:01:04;11.07;;;2.47;;
4198;SDS011;2113;50.946;14.610;2023-05-10T05:03:34;5.15;;;3.25;;
4198;SDS011;2113;50.946;14.610;2023-05-10T05:06:07;7.30;;;2.97;;
4198;SDS011;2113;50.946;14.610;2023-05-10T05:08:35;4.82;;;2.92;;
4198;SDS011;2113;50.946;14.610;2023-05-10T05:11:03;5.28;;;2.53;;
4198;SDS011;2113;50.946;14.610;2023-05-10T05:13:32;9.05;;;2.55;;
4198;SDS011;2113;50.946;14.610;2023-05-10T05:16:00;6.72;;;3.00;;
4198;SDS011;2113;50.946;14.610;2023-05-10T05:18:29;5.15;;;3.00;;
4198;SDS011;2113;50.946;14.610;2023-05-10T05:20:58;4.57;;;2.35;;
4198;SDS011;2113;50.946;14.610;2023-05-10T05:23:27;5.97;;;2.75;;
4198;SDS011;2113;50.946;14.610;2023-05-10T05:25:56;7.30;;;3.08;;
4198;SDS011;2113;50.946;14.610;2023-05-10T05:28:24;5.28;;;2.88;;
4198;SDS011;2113;50.946;14.610;2023-05-10T05:30:53;6.05;;;2.90;;
4198;SDS011;2113;50.946;14.610;2023-05-10T05:33:21;5.85;;;3.85;;
4198;SDS011;2113;50.946;14.610;2023-05-10T05:35:49;3.70;;;2.70;;
4198;SDS011;2113;50.946;14.610;2023-05-10T05:38:21;7.22;;;3.85;;
4198;SDS011;2113;50.946;14.610;2023-05-10T05:40:50;4.38;;;2.90;;
4198;SDS011;2113;50.946;14.610;2023-05-10T05:43:18;4.90;;;2.97;;
4198;SDS011;2113;50.946;14.610;2023-05-10T05:45:47;4.88;;;2.85;;
4198;SDS011;2113;50.946;14.610;2023-05-10T05:48:15;4.25;;;2.90;;
4198;SDS011;2113;50.946;14.610;2023-05-10T05:50:44;4.72;;;2.90;;
4198;SDS011;2113;50.946;14.610;2023-05-10T05:53:13;6.60;;;3.33;;
4198;SDS011;2113;50.946;14.610;2023-05-10T05:55:51;5.07;;;3.10;;
4198;SDS011;2113;50.946;14.610;2023-05-10T05:58:21;5.55;;;2.88;;
4198;SDS011;2113;50.946;14.610;2023-05-10T06:00:49;6.28;;;3.67;;
4198;SDS011;2113;50.946;14.610;2023-05-10T06:03:18;6.55;;;3.72;;
4198;SDS011;2113;50.946;14.610;2023-05-10T06:05:47;6.93;;;3.85;;
4198;SDS011;2113;50.946;14.610;2023-05-10T06:08:16;6.32;;;2.90;;
4198;SDS011;2113;50.946;14.610;2023-05-10T06:10:48;7.50;;;3.55;;
4198;SDS011;2113;50.946;14.610;2023-05-10T06:13:19;6.03;;;3.92;;
4198;SDS011;2113;50.946;14.610;2023-05-10T06:15:47;10.85;;;3.72;;
4198;SDS011;2113;50.946;14.610;2023-05-10T06:18:16;5.28;;;3.10;;
4198;SDS011;2113;50.946;14.610;2023-05-10T06:20:44;7.65;;;4.15;;
4198;SDS011;2113;50.946;14.610;2023-05-10T06:23:12;4.85;;;3.10;;
4198;SDS011;2113;50.946;14.610;2023-05-10T06:25:40;6.57;;;3.25;;
4198;SDS011;2113;50.946;14.610;2023-05-10T06:28:08;7.65;;;3.22;;
4198;SDS011;2113;50.946;14.610;2023-05-10T06:30:38;11.02;;;3.65;;
4198;SDS011;2113;50.946;14.610;2023-05-10T06:33:12;7.53;;;4.00;;
4198;SDS011;2113;50.946;14.610;2023-05-10T06:35:42;9.27;;;4.32;;
4198;SDS011;2113;50.946;14.610;2023-05-10T06:38:11;5.85;;;2.85;;
4198;SDS011;2113;50.946;14.610;2023-05-10T06:40:40;4.47;;;3.20;;
4198;SDS011;2113;50.946;14.610;2023-05-10T06:43:09;7.28;;;3.97;;
4198;SDS011;2113;50.946;14.610;2023-05-10T06:45:39;6.03;;;3.15;;
4198;SDS011;2113;50.946;14.610;2023-05-10T06:48:07;4.63;;;2.95;;
4198;SDS011;2113;50.946;14.610;2023-05-10T06:50:36;5.47;;;3.75;;
4198;SDS011;2113;50.946;14.610;2023-05-10T06:53:05;4.95;;;3.70;;
4198;SDS011;2113;50.946;14.610;2023-05-10T06:55:34;3.92;;;2.88;;
4198;SDS011;2113;50.946;14.610;2023-05-10T06:58:02;5.28;;;3.40;;
4198;SDS011;2113;50.946;14.610;2023-05-10T07:00:32;3.45;;;2.35;;
4198;SDS011;2113;50.946;14.610;2023-05-10T07:03:02;6.35;;;3.28;;
4198;SDS011;2113;50.946;14.610;2023-05-10T07:05:31;7.60;;;3.47;;
4198;SDS011;2113;50.946;14.610;2023-05-10T07:08:00;5.80;;;3.55;;
4198;SDS011;2113;50.946;14.610;2023-05-10T07:10:28;5.60;;;3.22;;
4198;SDS011;2113;50.946;14.610;2023-05-10T07:12:57;5.35;;;3.25;;
4198;SDS011;2113;50.946;14.610;2023-05-10T07:15:27;4.13;;;2.85;;
4198;SDS011;2113;50.946;14.610;2023-05-10T07:17:56;4.78;;;3.15;;
4198;SDS011;2113;50.946;14.610;2023-05-10T07:20:26;5.18;;;2.60;;
4198;SDS011;2113;50.946;14.610;2023-05-10T07:22:54;7.53;;;3.13;;
4198;SDS011;2113;50.946;14.610;2023-05-10T07:25:23;4.55;;;3.38;;
4198;SDS011;2113;50.946;14.610;2023-05-10T07:27:51;4.68;;;3.15;;
4198;SDS011;2113;50.946;14.610;2023-05-10T07:30:19;13.00;;;3.88;;
4198;SDS011;2113;50.946;14.610;2023-05-10T07:32:48;4.25;;;2.65;;
4198;SDS011;2113;50.946;14.610;2023-05-10T07:35:17;6.40;;;3.90;;
4198;SDS011;2113;50.946;14.610;2023-05-10T07:40:41;7.93;;;2.90;;
4198;SDS011;2113;50.946;14.610;2023-05-10T07:43:10;8.43;;;3.30;;
4198;SDS011;2113;50.946;14.610;2023-05-10T07:45:39;5.30;;;3.60;;
4198;SDS011;2113;50.946;14.610;2023-05-10T07:48:08;5.50;;;2.92;;
4198;SDS011;2113;50.946;14.610;2023-05-10T07:50:37;8.68;;;4.40;;
4198;SDS011;2113;50.946;14.610;2023-05-10T07:53:05;5.57;;;3.00;;
4198;SDS011;2113;50.946;14.610;2023-05-10T07:55:35;7.25;;;3.20;;
4198;SDS011;2113;50.946;14.610;2023-05-10T07:58:04;6.60;;;2.95;;
4198;SDS011;2113;50.946;14.610;2023-05-10T08:00:32;7.50;;;3.90;;
4198;SDS011;2113;50.946;14.610;2023-05-10T08:03:01;6.28;;;3.75;;
4198;SDS011;2113;50.946;14.610;2023-05-10T08:05:35;5.63;;;3.10;;
4198;SDS011;2113;50.946;14.610;2023-05-10T08:08:06;7.80;;;2.70;;
4198;SDS011;2113;50.946;14.610;2023-05-10T08:10:38;6.15;;;3.08;;
4198;SDS011;2113;50.946;14.610;2023-05-10T08:13:06;8.48;;;2.97;;
4198;SDS011;2113;50.946;14.610;2023-05-10T08:15:35;4.78;;;3.25;;
4198;SDS011;2113;50.946;14.610;2023-05-10T08:18:04;4.75;;;2.38;;
4198;SDS011;2113;50.946;14.610;2023-05-10T08:20:32;6.97;;;3.20;;
4198;SDS011;2113;50.946;14.610;2023-05-10T08:23:01;9.25;;;4.35;;
4198;SDS011;2113;50.946;14.610;2023-05-10T08:25:29;5.30;;;3.05;;
4198;SDS011;2113;50.946;14.610;2023-05-10T08:28:01;7.80;;;3.70;;
4198;SDS011;2113;50.946;14.610;2023-05-10T08:30:29;4.70;;;3.00;;
4198;SDS011;2113;50.946;14.610;2023-05-10T08:32:58;10.25;;;3.83;;
4198;SDS011;2113;50.946;14.610;2023-05-10T08:35:28;5.65;;;3.45;;
4198;SDS011;2113;50.946;14.610;2023-05-10T08:37:56;4.95;;;2.75;;
4198;SDS011;2113;50.946;14.610;2023-05-10T08:40:25;7.35;;;3.25;;
4198;SDS011;2113;50.946;14.610;2023-05-10T08:42:55;6.20;;;3.40;;
4198;SDS011;2113;50.946;14.610;2023-05-10T08:45:30;6.50;;;3.22;;
4198;SDS011;2113;50.946;14.610;2023-05-10T08:48:01;5.97;;;3.67;;
4198;SDS011;2113;50.946;14.610;2023-05-10T08:50:30;4.55;;;3.05;;
4198;SDS011;2113;50.946;14.610;2023-05-10T08:53:04;4.07;;;2.97;;
4198;SDS011;2113;50.946;14.610;2023-05-10T08:55:34;5.45;;;3.70;;
4198;SDS011;2113;50.946;14.610;2023-05-10T08:58:03;4.68;;;3.55;;
4198;SDS011;2113;50.946;14.610;2023-05-10T09:00:34;4.90;;;3.35;;
4198;SDS011;2113;50.946;14.610;2023-05-10T09:03:04;4.88;;;3.38;;
4198;SDS011;2113;50.946;14.610;2023-05-10T09:05:37;7.03;;;3.55;;
4198;SDS011;2113;50.946;14.610;2023-05-10T09:08:05;5.72;;;3.35;;
4198;SDS011;2113;50.946;14.610;2023-05-10T09:10:34;7.35;;;3.45;;
4198;SDS011;2113;50.946;14.610;2023-05-10T09:13:03;3.95;;;3.40;;
4198;SDS011;2113;50.946;14.610;2023-05-10T09:15:33;4.25;;;3.15;;
4198;SDS011;2113;50.946;14.610;2023-05-10T09:18:06;5.28;;;3.15;;
4198;SDS011;2113;50.946;14.610;2023-05-10T09:20:35;6.03;;;3.75;;
4198;SDS011;2113;50.946;14.610;2023-05-10T09:23:03;5.43;;;3.13;;
4198;SDS011;2113;50.946;14.610;2023-05-10T09:25:32;5.03;;;3.38;;
4198;SDS011;2113;50.946;14.610;2023-05-10T09:28:01;5.10;;;3.47;;
4198;SDS011;2113;50.946;14.610;2023-05-10T09:30:30;7.60;;;3.90;;
4198;SDS011;2113;50.946;14.610;2023-05-10T09:33:00;4.68;;;2.65;;
4198;SDS011;2113;50.946;14.610;2023-05-10T09:35:29;5.68;;;3.33;;
4198;SDS011;2113;50.946;14.610;2023-05-10T09:37:59;6.00;;;3.40;;
4198;SDS011;2113;50.946;14.610;2023-05-10T09:40:29;4.63;;;3.08;;
4198;SDS011;2113;50.946;14.610;2023-05-10T09:42:59;5.80;;;3.80;;
4198;SDS011;2113;50.946;14.610;2023-05-10T09:45:29;4.95;;;3.70;;
4198;SDS011;2113;50.946;14.610;2023-05-10T09:48:03;7.25;;;2.97;;
4198;SDS011;2113;50.946;14.610;2023-05-10T09:50:32;5.22;;;3.38;;
4198;SDS011;2113;50.946;14.610;2023-05-10T09:53:01;6.25;;;3.33;;
4198;SDS011;2113;50.946;14.610;2023-05-10T09:55:38;5.15;;;2.90;;
4198;SDS011;2113;50.946;14.610;2023-05-10T09:58:08;4.55;;;3.00;;
4198;SDS011;2113;50.946;14.610;2023-05-10T10:00:38;5.40;;;4.05;;
4198;SDS011;2113;50.946;14.610;2023-05-10T10:03:13;5.60;;;3.50;;
4198;SDS011;2113;50.946;14.610;2023-05-10T10:05:43;5.47;;;2.80;;
4198;SDS011;2113;50.946;14.610;2023-05-10T10:08:13;5.00;;;2.80;;
4198;SDS011;2113;50.946;14.610;2023-05-10T10:10:42;11.38;;;3.22;;
4198;SDS011;2113;50.946;14.610;2023-05-10T10:13:13;8.13;;;3.33;;
4198;SDS011;2113;50.946;14.610;2023-05-10T10:15:41;6.32;;;3.75;;
4198;SDS011;2113;50.946;14.610;2023-05-10T10:18:13;5.55;;;3.28;;
4198;SDS011;2113;50.946;14.610;2023-05-10T10:20:42;4.65;;;3.30;;
4198;SDS011;2113;50.946;14.610;2023-05-10T10:23:12;6.30;;;3.45;;
4198;SDS011;2113;50.946;14.610;2023-05-10T10:25:43;4.13;;;3.13;;
4198;SDS011;2113;50.946;14.610;2023-05-10T10:28:21;4.50;;;3.08;;
4198;SDS011;2113;50.946;14.610;2023-05-10T10:30:54;5.95;;;3.20;;
4198;SDS011;2113;50.946;14.610;2023-05-10T10:33:33;4.28;;;3.50;;
4198;SDS011;2113;50.946;14.610;2023-05-10T10:36:08;9.88;;;3.58;;
4198;SDS011;2113;50.946;14.610;2023-05-10T10:38:57;5.75;;;3.45;;
4198;SDS011;2113;50.946;14.610;2023-05-10T10:41:30;4.03;;;2.83;;
4198;SDS011;2113;50.946;14.610;2023-05-10T10:47:02;4.20;;;3.30;;
4198;SDS011;2113;50.946;14.610;2023-05-10T10:49:49;6.25;;;3.55;;
4198;SDS011;2113;50.946;14.610;2023-05-10T10:52:22;4.25;;;3.35;;
4198;SDS011;2113;50.946;14.610;2023-05-10T10:54:59;8.43;;;2.97;;
4198;SDS011;2113;50.946;14.610;2023-05-10T10:57:35;5.72;;;2.70;;
4198;SDS011;2113;50.946;14.610;2023-05-10T11:00:21;3.25;;;2.72;;
4198;SDS011;2113;50.946;14.610;2023-05-10T11:02:53;5.22;;;3.20;;
4198;SDS011;2113;50.946;14.610;2023-05-10T11:05:37;3.83;;;2.65;;
4198;SDS011;2113;50.946;14.610;2023-05-10T11:08:12;5.25;;;3.20;;
4198;SDS011;2113;50.946;14.610;2023-05-10T11:10:51;5.15;;;3.45;;
4198;SDS011;2113;50.946;14.610;2023-05-10T11:13:32;6.45;;;3.80;;
4198;SDS011;2113;50.946;14.610;2023-05-10T11:16:12;6.88;;;2.78;;
4198;SDS011;2113;50.946;14.610;2023-05-10T11:18:52;5.28;;;2.85;;
4198;SDS011;2113;50.946;14.610;2023-05-10T11:21:23;6.57;;;3.47;;
4198;SDS011;2113;50.946;14.610;2023-05-10T11:23:52;5.18;;;3.10;;
4198;SDS011;2113;50.946;14.610;2023-05-10T11:26:23;4.15;;;3.17;;
4198;SDS011;2113;50.946;14.610;2023-05-10T11:28:53;4.88;;;3.10;;
4198;SDS011;2113;50.946;14.610;2023-05-10T11:31:23;6.15;;;3.00;;
4198;SDS011;2113;50.946;14.610;2023-05-10T11:33:54;8.50;;;3.25;;
4198;SDS011;2113;50.946;14.610;2023-05-10T11:36:25;5.40;;;3.58;;
4198;SDS011;2113;50.946;14.610;2023-05-10T11:38:55;4.35;;;3.45;;
4198;SDS011;2113;50.946;14.610;2023-05-10T11:41:24;5.82;;;3.45;;
4198;SDS011;2113;50.946;14.610;2023-05-10T11:43:53;5.15;;;2.45;;
4198;SDS011;2113;50.946;14.610;2023-05-10T11:46:24;7.47;;;2.88;;
4198;SDS011;2113;50.946;14.610;2023-05-10T11:48:54;6.25;;;3.05;;
4198;SDS011;2113;50.946;14.610;2023-05-10T11:51:26;11.13;;;2.75;;
4198;SDS011;2113;50.946;14.610;2023-05-10T11:53:56;5.20;;;3.00;;
4198;SDS011;2113;50.946;14.610;2023-05-10T11:56:25;7.80;;;3.15;;
4198;SDS011;2113;50.946;14.610;2023-05-10T11:58:54;6.43;;;3.00;;
4198;SDS011;2113;50.946;14.610;2023-05-10T12:01:24;4.82;;;4.10;;
4198;SDS011;2113;50.946;14.610;2023-05-10T12:03:55;4.45;;;2.78;;
4198;SDS011;2113;50.946;14.610;2023-05-10T12:06:29;3.47;;;2.42;;
4198;SDS011;2113;50.946;14.610;2023-05-10T12:09:01;4.88;;;2.80;;
4198;SDS011;2113;50.946;14.610;2023-05-10T12:11:36;4.40;;;3.25;;
4198;SDS011;2113;50.946;14.610;2023-05-10T12:14:10;3.33;;;2.60;;
4198;SDS011;2113;50.946;14.610;2023-05-10T12:16:39;5.40;;;3.22;;
4198;SDS011;2113;50.946;14.610;2023-05-10T12:19:08;3.60;;;2.38;;
4198;SDS011;2113;50.946;14.610;2023-05-10T12:21:38;5.15;;;2.90;;
4198;SDS011;2113;50.946;14.610;2023-05-10T12:24:08;5.25;;;3.10;;
4198;SDS011;2113;50.946;14.610;2023-05-10T12:26:37;5.00;;;2.67;;
4198;SDS011;2113;50.946;14.610;2023-05-10T12:29:13;3.58;;;2.97;;
4198;SDS011;2113;50.946;14.610;2023-05-10T12:31:53;4.25;;;2.85;;
4198;SDS011;2113;50.946;14.610;2023-05-10T12:34:25;5.50;;;3.00;;
4198;SDS011;2113;50.946;14.610;2023-05-10T12:36:56;5.78;;;3.00;;
4198;SDS011;2113;50.946;14.610;2023-05-10T12:39:25;7.68;;;3.25;;
4198;SDS011;2113;50.946;14.610;2023-05-10T12:41:53;5.00;;;3.50;;
4198;SDS011;2113;50.946;14.610;2023-05-10T12:44:22;5.30;;;3.40;;
4198;SDS011;2113;50.946;14.610;2023-05-10T12:46:51;8.15;;;3.63;;
4198;SDS011;2113;50.946;14.610;2023-05-10T12:49:19;5.20;;;3.35;;
4198;SDS011;2113;50.946;14.610;2023-05-10T12:51:48;7.60;;;3.45;;
4198;SDS011;2113;50.946;14.610;2023-05-10T12:54:22;6.22;;;3.67;;
4198;SDS011;2113;50.946;14.610;2023-05-10T12:56:52;6.65;;;3.85;;
4198;SDS011;2113;50.946;14.610;2023-05-10T12:59:20;5.30;;;3.25;;
4198;SDS011;2113;50.946;14.610;2023-05-10T13:01:49;7.70;;;2.88;;
4198;SDS011;2113;50.946;14.610;2023-05-10T13:04:18;6.05;;;3.03;;
4198;SDS011;2113;50.946;14.610;2023-05-10T13:06:47;10.13;;;3.20;;
4198;SDS011;2113;50.946;14.610;2023-05-10T13:09:16;11.27;;;3.85;;
4198;SDS011;2113;50.946;14.610;2023-05-10T13:11:45;9.15;;;2.95;;
4198;SDS011;2113;50.946;14.610;2023-05-10T13:14:16;4.57;;;3.13;;
4198;SDS011;2113;50.946;14.610;2023-05-10T13:16:46;5.80;;;3.25;;
4198;SDS011;2113;50.946;14.610;2023-05-10T13:19:15;5.15;;;3.40;;
4198;SDS011;2113;50.946;14.610;2023-05-10T13:21:44;3.58;;;2.90;;
4198;SDS011;2113;50.946;14.610;2023-05-10T13:24:13;4.78;;;3.15;;
4198;SDS011;2113;50.946;14.610;2023-05-10T13:26:42;4.80;;;3.15;;
4198;SDS011;2113;50.946;14.610;2023-05-10T13:29:13;6.40;;;3.40;;
4198;SDS011;2113;50.946;14.610;2023-05-10T13:31:44;5.38;;;3.08;;
4198;SDS011;2113;50.946;14.610;2023-05-10T13:34:12;6.05;;;3.05;;
4198;SDS011;2113;50.946;14.610;2023-05-10T13:36:41;6.93;;;3.35;;
4198;SDS011;2113;50.946;14.610;2023-05-10T13:39:10;7.20;;;3.42;;
4198;SDS011;2113;50.946;14.610;2023-05-10T13:41:38;5.03;;;3.08;;
4198;SDS011;2113;50.946;14.610;2023-05-10T13:44:07;4.15;;;2.75;;
4198;SDS011;2113;50.946;14.610;2023-05-10T13:46:37;7.07;;;3.35;;
4198;SDS011;2113;50.946;14.610;2023-05-10T13:49:06;4.50;;;2.63;;
4198;SDS011;2113;50.946;14.610;2023-05-10T13:51:34;7.95;;;3.40;;
4198;SDS011;2113;50.946;14.610;2023-05-10T13:54:03;8.27;;;3.10;;
4198;SDS011;2113;50.946;14.610;2023-05-10T13:56:32;5.57;;;3.20;;
4198;SDS011;2113;50.946;14.610;2023-05-10T13:59:01;7.90;;;2.83;;
4198;SDS011;2113;50.946;14.610;2023-05-10T14:01:31;6.88;;;3.40;;
4198;SDS011;2113;50.946;14.610;2023-05-10T14:04:01;8.68;;;3.53;;
4198;SDS011;2113;50.946;14.610;2023-05-10T14:06:32;5.43;;;3.50;;
4198;SDS011;2113;50.946;14.610;2023-05-10T14:09:00;3.90;;;2.92;;
4198;SDS011;2113;50.946;14.610;2023-05-10T14:11:29;4.30;;;3.50;;
4198;SDS011;2113;50.946;14.610;2023-05-10T14:13:57;6.43;;;3.47;;
4198;SDS011;2113;50.946;14.610;2023-05-10T14:16:26;4.88;;;4.10;;
4198;SDS011;2113;50.946;14.610;2023-05-10T14:18:55;7.32;;;3.90;;
4198;SDS011;2113;50.946;14.610;2023-05-10T14:21:25;5.03;;;4.07;;
4198;SDS011;2113;50.946;14.610;2023-05-10T14:23:55;6.10;;;3.85;;
4198;SDS011;2113;50.946;14.610;2023-05-10T14:26:24;5.15;;;3.13;;
4198;SDS011;2113;50.946;14.610;2023-05-10T14:28:54;7.30;;;4.28;;
4198;SDS011;2113;50.946;14.610;2023-05-10T14:31:22;5.55;;;3.58;;
4198;SDS011;2113;50.946;14.610;2023-05-10T14:33:52;9.82;;;3.20;;
4198;SDS011;2113;50.946;14.610;2023-05-10T14:36:21;3.45;;;2.90;;
4198;SDS011;2113;50.946;14.610;2023-05-10T14:38:51;4.50;;;3.13;;
4198;SDS011;2113;50.946;14.610;2023-05-10T14:41:19;4.97;;;3.35;;
4198;SDS011;2113;50.946;14.610;2023-05-10T14:43:47;5.72;;;4.15;;
4198;SDS011;2113;50.946;14.610;2023-05-10T14:46:16;7.95;;;3.17;;
4198;SDS011;2113;50.946;14.610;2023-05-10T14:48:45;5.53;;;3.67;;
4198;SDS011;2113;50.946;14.610;2023-05-10T14:51:13;4.18;;;3.38;;
4198;SDS011;2113;50.946;14.610;2023-05-10T14:53:42;5.40;;;3.80;;
4198;SDS011;2113;50.946;14.610;2023-05-10T14:56:11;5.45;;;3.53;;
4198;SDS011;2113;50.946;14.610;2023-05-10T14:58:39;6.72;;;3.17;;
4198;SDS011;2113;50.946;14.610;2023-05-10T15:01:08;5.68;;;3.30;;
4198;SDS011;2113;50.946;14.610;2023-05-10T15:03:36;4.20;;;3.20;;
4198;SDS011;2113;50.946;14.610;2023-05-10T15:06:07;4.80;;;3.80;;
4198;SDS011;2113;50.946;14.610;2023-05-10T15:08:36;5.03;;;4.28;;
4198;SDS011;2113;50.946;14.610;2023-05-10T15:11:04;4.55;;;3.63;;
4198;SDS011;2113;50.946;14.610;2023-05-10T15:13:34;5.50;;;2.75;;
4198;SDS011;2113;50.946;14.610;2023-05-10T15:16:02;5.10;;;3.58;;
4198;SDS011;2113;50.946;14.610;2023-05-10T15:18:31;3.63;;;2.97;;
4198;SDS011;2113;50.946;14.610;2023-05-10T15:21:00;4.93;;;4.22;;
4198;SDS011;2113;50.946;14.610;2023-05-10T15:23:29;4.85;;;3.30;;
4198;SDS011;2113;50.946;14.610;2023-05-10T15:25:58;5.63;;;3.05;;
4198;SDS011;2113;50.946;14.610;2023-05-10T15:28:28;4.45;;;2.83;;
4198;SDS011;2113;50.946;14.610;2023-05-10T15:31:00;4.43;;;3.20;;
4198;SDS011;2113;50.946;14.610;2023-05-10T15:33:29;4.55;;;3.42;;
4198;SDS011;2113;50.946;14.610;2023-05-10T15:35:58;4.15;;;3.03;;